sensor_id;sensor_type;location;lat;lon;timestamp;pressure;altitude;pressure_sealevel;temperature;humidity
55517;BME280;41724;51.176;-0.708;2022-12-07T00:01:28;101896.34;;;7.19;51.12
55517;BME280;41724;51.176;-0.708;2022-12-07T00:03:57;101895.26;;;7.08;51.17
55517;BME280;41724;51.176;-0.708;2022-12-07T00:06:24;101894.92;;;6.96;51.05
55517;BME280;41724;51.176;-0.708;2022-12-07T00:08:51;101895.07;;;7.27;50.50
55517;BME280;41724;51.176;-0.708;2022-12-07T00:11:21;101897.31;;;6.73;51.11
55517;BME280;41724;51.176;-0.708;2022-12-07T00:13:51;101901.04;;;6.80;50.82
55517;BME280;41724;51.176;-0.708;2022-12-07T00:16:22;101898.80;;;6.69;50.82
55517;BME280;41724;51.176;-0.708;2022-12-07T00:18:49;101901.56;;;6.87;50.87
55517;BME280;41724;51.176;-0.708;2022-12-07T00:21:18;101902.19;;;6.87;51.22
55517;BME280;41724;51.176;-0.708;2022-12-07T00:23:47;101901.56;;;7.07;51.23
55517;BME280;41724;51.176;-0.708;2022-12-07T00:26:16;101896.10;;;6.93;52.08
55517;BME280;41724;51.176;-0.708;2022-12-07T00:28:46;101894.14;;;7.08;51.94
55517;BME280;41724;51.176;-0.708;2022-12-07T00:31:14;101891.07;;;6.89;53.09
55517;BME280;41724;51.176;-0.708;2022-12-07T00:33:42;101893.21;;;7.18;52.69
55517;BME280;41724;51.176;-0.708;2022-12-07T00:36:11;101890.43;;;7.03;52.69
55517;BME280;41724;51.176;-0.708;2022-12-07T00:38:40;101884.98;;;7.06;51.85
55517;BME280;41724;51.176;-0.708;2022-12-07T00:41:12;101882.10;;;7.20;52.69
55517;BME280;41724;51.176;-0.708;2022-12-07T00:43:41;101882.62;;;6.64;52.61
55517;BME280;41724;51.176;-0.708;2022-12-07T00:46:09;101880.20;;;7.21;51.95
55517;BME280;41724;51.176;-0.708;2022-12-07T00:48:37;101877.91;;;7.29;52.23
55517;BME280;41724;51.176;-0.708;2022-12-07T00:51:05;101878.27;;;7.19;51.93
55517;BME280;41724;51.176;-0.708;2022-12-07T00:53:34;101880.17;;;7.25;51.23
55517;BME280;41724;51.176;-0.708;2022-12-07T00:56:06;101877.48;;;7.17;50.96
55517;BME280;41724;51.176;-0.708;2022-12-07T00:58:33;101878.18;;;7.53;50.87
55517;BME280;41724;51.176;-0.708;2022-12-07T01:01:02;101874.65;;;7.53;50.25
55517;BME280;41724;51.176;-0.708;2022-12-07T01:03:29;101878.11;;;7.37;50.88
55517;BME280;41724;51.176;-0.708;2022-12-07T01:05:58;101876.03;;;6.96;51.01
55517;BME280;41724;51.176;-0.708;2022-12-07T01:08:26;101872.51;;;7.24;50.82
55517;BME280;41724;51.176;-0.708;2022-12-07T01:10:58;101872.28;;;7.15;51.07
55517;BME280;41724;51.176;-0.708;2022-12-07T01:13:26;101872.91;;;7.01;51.23
55517;BME280;41724;51.176;-0.708;2022-12-07T01:15:57;101874.04;;;6.87;51.15
55517;BME280;41724;51.176;-0.708;2022-12-07T01:18:26;101872.95;;;6.92;50.56
55517;BME280;41724;51.176;-0.708;2022-12-07T01:21:02;101870.42;;;6.97;50.68
55517;BME280;41724;51.176;-0.708;2022-12-07T01:23:30;101871.83;;;6.68;51.04
55517;BME280;41724;51.176;-0.708;2022-12-07T01:25:59;101868.78;;;6.59;51.62
55517;BME280;41724;51.176;-0.708;2022-12-07T01:28:27;101873.89;;;6.72;52.51
55517;BME280;41724;51.176;-0.708;2022-12-07T01:30:57;101873.61;;;6.81;52.55
55517;BME280;41724;51.176;-0.708;2022-12-07T01:33:26;101875.22;;;6.93;51.95
55517;BME280;41724;51.176;-0.708;2022-12-07T01:35:54;101873.76;;;7.01;52.00
55517;BME280;41724;51.176;-0.708;2022-12-07T01:38:21;101873.68;;;7.22;51.61
55517;BME280;41724;51.176;-0.708;2022-12-07T01:40:54;101874.17;;;7.49;51.93
55517;BME280;41724;51.176;-0.708;2022-12-07T01:43:23;101869.49;;;7.31;51.94
55517;BME280;41724;51.176;-0.708;2022-12-07T01:45:51;101867.68;;;7.17;51.92
55517;BME280;41724;51.176;-0.708;2022-12-07T01:48:22;101867.72;;;6.87;53.24
55517;BME280;41724;51.176;-0.708;2022-12-07T01:50:52;101867.79;;;7.07;52.63
55517;BME280;41724;51.176;-0.708;2022-12-07T01:53:20;101868.14;;;7.48;52.25
55517;BME280;41724;51.176;-0.708;2022-12-07T01:55:50;101865.61;;;7.40;52.05
55517;BME280;41724;51.176;-0.708;2022-12-07T01:58:21;101873.65;;;7.25;51.66
55517;BME280;41724;51.176;-0.708;2022-12-07T02:00:48;101873.92;;;7.51;51.86
55517;BME280;41724;51.176;-0.708;2022-12-07T02:03:21;101872.66;;;7.47;52.05
55517;BME280;41724;51.176;-0.708;2022-12-07T02:05:53;101874.90;;;7.15;53.21
55517;BME280;41724;51.176;-0.708;2022-12-07T02:08:21;101875.59;;;7.61;52.41
55517;BME280;41724;51.176;-0.708;2022-12-07T02:10:48;101873.68;;;7.47;52.21
55517;BME280;41724;51.176;-0.708;2022-12-07T02:13:17;101870.83;;;7.59;52.77
55517;BME280;41724;51.176;-0.708;2022-12-07T02:15:56;101866.71;;;7.18;53.24
55517;BME280;41724;51.176;-0.708;2022-12-07T02:18:38;101867.55;;;7.77;52.71
55517;BME280;41724;51.176;-0.708;2022-12-07T02:21:15;101866.41;;;7.41;53.27
55517;BME280;41724;51.176;-0.708;2022-12-07T02:24:11;101862.52;;;7.38;52.95
55517;BME280;41724;51.176;-0.708;2022-12-07T02:26:51;101863.21;;;7.52;52.54
55517;BME280;41724;51.176;-0.708;2022-12-07T02:29:26;101867.46;;;7.60;52.50
55517;BME280;41724;51.176;-0.708;2022-12-07T02:32:08;101866.87;;;7.76;52.29
55517;BME280;41724;51.176;-0.708;2022-12-07T02:34:46;101866.36;;;8.04;52.15
55517;BME280;41724;51.176;-0.708;2022-12-07T02:37:27;101869.30;;;7.29;53.79
55517;BME280;41724;51.176;-0.708;2022-12-07T02:40:03;101863.05;;;7.89;52.51
55517;BME280;41724;51.176;-0.708;2022-12-07T02:42:37;101863.78;;;7.79;52.36
55517;BME280;41724;51.176;-0.708;2022-12-07T02:45:08;101859.49;;;7.82;51.74
55517;BME280;41724;51.176;-0.708;2022-12-07T02:47:37;101860.83;;;7.78;51.49
55517;BME280;41724;51.176;-0.708;2022-12-07T02:50:07;101856.04;;;7.93;51.57
55517;BME280;41724;51.176;-0.708;2022-12-07T02:52:34;101853.63;;;7.52;51.77
55517;BME280;41724;51.176;-0.708;2022-12-07T02:55:01;101854.43;;;7.60;51.51
55517;BME280;41724;51.176;-0.708;2022-12-07T02:57:45;101854.34;;;7.49;51.60
55517;BME280;41724;51.176;-0.708;2022-12-07T03:00:20;101852.76;;;7.50;51.62
55517;BME280;41724;51.176;-0.708;2022-12-07T03:02:53;101857.96;;;7.33;51.84
55517;BME280;41724;51.176;-0.708;2022-12-07T03:05:35;101859.85;;;7.49;51.75
55517;BME280;41724;51.176;-0.708;2022-12-07T03:08:11;101856.62;;;7.80;51.95
55517;BME280;41724;51.176;-0.708;2022-12-07T03:10:51;101854.52;;;7.66;51.80
55517;BME280;41724;51.176;-0.708;2022-12-07T03:13:24;101850.73;;;7.85;51.53
55517;BME280;41724;51.176;-0.708;2022-12-07T03:15:58;101851.23;;;8.00;51.54
55517;BME280;41724;51.176;-0.708;2022-12-07T03:18:30;101848.72;;;7.47;52.69
55517;BME280;41724;51.176;-0.708;2022-12-07T03:21:02;101850.13;;;7.65;52.26
55517;BME280;41724;51.176;-0.708;2022-12-07T03:23:32;101846.00;;;7.93;52.23
55517;BME280;41724;51.176;-0.708;2022-12-07T03:26:04;101842.77;;;7.83;51.80
55517;BME280;41724;51.176;-0.708;2022-12-07T03:28:38;101844.75;;;8.14;50.96
55517;BME280;41724;51.176;-0.708;2022-12-07T03:31:12;101846.57;;;8.09;50.99
55517;BME280;41724;51.176;-0.708;2022-12-07T03:33:47;101845.63;;;8.14;51.40
55517;BME280;41724;51.176;-0.708;2022-12-07T03:36:22;101847.78;;;7.88;51.47
55517;BME280;41724;51.176;-0.708;2022-12-07T03:38:57;101852.51;;;7.80;52.11
55517;BME280;41724;51.176;-0.708;2022-12-07T03:41:31;101845.27;;;8.05;51.18
55517;BME280;41724;51.176;-0.708;2022-12-07T03:43:59;101840.06;;;7.84;52.08
55517;BME280;41724;51.176;-0.708;2022-12-07T03:46:34;101836.85;;;8.07;51.53
55517;BME280;41724;51.176;-0.708;2022-12-07T03:49:08;101833.55;;;7.88;51.86
55517;BME280;41724;51.176;-0.708;2022-12-07T03:51:42;101835.55;;;7.93;52.06
55517;BME280;41724;51.176;-0.708;2022-12-07T03:54:18;101836.84;;;8.22;51.26
55517;BME280;41724;51.176;-0.708;2022-12-07T03:56:49;101836.42;;;8.22;51.18
55517;BME280;41724;51.176;-0.708;2022-12-07T03:59:17;101837.36;;;8.13;50.99
55517;BME280;41724;51.176;-0.708;2022-12-07T04:01:52;101838.88;;;7.26;52.48
55517;BME280;41724;51.176;-0.708;2022-12-07T04:04:20;101844.38;;;6.00;55.95
55517;BME280;41724;51.176;-0.708;2022-12-07T04:06:47;101840.07;;;7.62;53.61
55517;BME280;41724;51.176;-0.708;2022-12-07T04:09:14;101843.80;;;7.55;53.28
55517;BME280;41724;51.176;-0.708;2022-12-07T04:11:41;101838.29;;;7.41;53.04
55517;BME280;41724;51.176;-0.708;2022-12-07T04:14:09;101837.98;;;7.77;52.27
55517;BME280;41724;51.176;-0.708;2022-12-07T04:16:36;101840.01;;;8.04;51.81
55517;BME280;41724;51.176;-0.708;2022-12-07T04:19:04;101835.98;;;8.14;51.52
55517;BME280;41724;51.176;-0.708;2022-12-07T04:21:31;101838.62;;;8.28;51.06
55517;BME280;41724;51.176;-0.708;2022-12-07T04:23:58;101836.01;;;8.14;50.94
55517;BME280;41724;51.176;-0.708;2022-12-07T04:26:25;101833.74;;;8.32;50.19
55517;BME280;41724;51.176;-0.708;2022-12-07T04:28:52;101835.28;;;8.02;50.89
55517;BME280;41724;51.176;-0.708;2022-12-07T04:31:20;101832.20;;;8.04;51.23
55517;BME280;41724;51.176;-0.708;2022-12-07T04:33:46;101831.82;;;8.10;51.57
55517;BME280;41724;51.176;-0.708;2022-12-07T04:36:13;101832.04;;;8.04;50.70
55517;BME280;41724;51.176;-0.708;2022-12-07T04:38:41;101835.70;;;7.99;50.70
55517;BME280;41724;51.176;-0.708;2022-12-07T04:41:09;101830.93;;;8.43;50.46
55517;BME280;41724;51.176;-0.708;2022-12-07T04:43:36;101828.69;;;8.11;50.21
55517;BME280;41724;51.176;-0.708;2022-12-07T04:46:04;101831.02;;;8.39;50.22
55517;BME280;41724;51.176;-0.708;2022-12-07T04:48:32;101830.92;;;8.13;50.72
55517;BME280;41724;51.176;-0.708;2022-12-07T04:50:59;101827.54;;;7.80;50.96
55517;BME280;41724;51.176;-0.708;2022-12-07T04:53:27;101828.22;;;8.12;51.24
55517;BME280;41724;51.176;-0.708;2022-12-07T04:55:54;101826.67;;;7.47;51.46
55517;BME280;41724;51.176;-0.708;2022-12-07T04:58:21;101826.74;;;7.95;51.09
55517;BME280;41724;51.176;-0.708;2022-12-07T05:00:48;101825.28;;;8.20;50.82
55517;BME280;41724;51.176;-0.708;2022-12-07T05:03:16;101822.95;;;8.34;50.18
55517;BME280;41724;51.176;-0.708;2022-12-07T05:05:43;101820.28;;;7.92;50.62
55517;BME280;41724;51.176;-0.708;2022-12-07T05:08:11;101822.11;;;8.12;50.25
55517;BME280;41724;51.176;-0.708;2022-12-07T05:10:38;101816.27;;;8.01;50.14
55517;BME280;41724;51.176;-0.708;2022-12-07T05:13:05;101818.45;;;8.00;50.14
55517;BME280;41724;51.176;-0.708;2022-12-07T05:15:32;101818.94;;;7.85;50.24
55517;BME280;41724;51.176;-0.708;2022-12-07T05:18:00;101814.84;;;7.86;50.11
55517;BME280;41724;51.176;-0.708;2022-12-07T05:20:27;101812.78;;;7.81;50.12
55517;BME280;41724;51.176;-0.708;2022-12-07T05:22:55;101810.98;;;7.29;51.24
55517;BME280;41724;51.176;-0.708;2022-12-07T05:25:22;101808.10;;;7.44;50.62
55517;BME280;41724;51.176;-0.708;2022-12-07T05:27:49;101809.14;;;7.33;50.95
55517;BME280;41724;51.176;-0.708;2022-12-07T05:30:17;101811.31;;;7.23;51.49
55517;BME280;41724;51.176;-0.708;2022-12-07T05:32:43;101810.64;;;7.02;53.30
55517;BME280;41724;51.176;-0.708;2022-12-07T05:35:11;101808.39;;;6.72;53.17
55517;BME280;41724;51.176;-0.708;2022-12-07T05:37:38;101811.41;;;7.07;53.15
55517;BME280;41724;51.176;-0.708;2022-12-07T05:40:06;101810.26;;;7.41;52.56
55517;BME280;41724;51.176;-0.708;2022-12-07T05:42:34;101810.43;;;7.46;52.46
55517;BME280;41724;51.176;-0.708;2022-12-07T05:45:01;101808.17;;;7.20;52.59
55517;BME280;41724;51.176;-0.708;2022-12-07T05:47:28;101805.26;;;7.07;52.70
55517;BME280;41724;51.176;-0.708;2022-12-07T05:49:55;101805.67;;;7.09;52.33
55517;BME280;41724;51.176;-0.708;2022-12-07T05:52:23;101804.57;;;7.23;52.08
55517;BME280;41724;51.176;-0.708;2022-12-07T05:54:50;101802.59;;;7.18;52.05
55517;BME280;41724;51.176;-0.708;2022-12-07T05:57:17;101801.85;;;6.90;51.79
55517;BME280;41724;51.176;-0.708;2022-12-07T05:59:44;101804.11;;;7.00;51.64
55517;BME280;41724;51.176;-0.708;2022-12-07T06:02:13;101802.53;;;7.16;52.26
55517;BME280;41724;51.176;-0.708;2022-12-07T06:04:42;101802.02;;;6.78;52.93
55517;BME280;41724;51.176;-0.708;2022-12-07T06:07:11;101801.94;;;6.58;52.88
55517;BME280;41724;51.176;-0.708;2022-12-07T06:09:38;101800.23;;;6.64;52.89
55517;BME280;41724;51.176;-0.708;2022-12-07T06:12:06;101799.34;;;6.56;52.88
55517;BME280;41724;51.176;-0.708;2022-12-07T06:14:37;101796.36;;;6.46;52.98
55517;BME280;41724;51.176;-0.708;2022-12-07T06:17:05;101795.58;;;6.74;53.08
55517;BME280;41724;51.176;-0.708;2022-12-07T06:19:32;101796.39;;;6.81;52.92
55517;BME280;41724;51.176;-0.708;2022-12-07T06:22:00;101797.44;;;6.58;52.73
55517;BME280;41724;51.176;-0.708;2022-12-07T06:24:27;101799.89;;;6.89;52.38
55517;BME280;41724;51.176;-0.708;2022-12-07T06:26:54;101803.04;;;6.46;52.76
55517;BME280;41724;51.176;-0.708;2022-12-07T06:29:20;101804.83;;;6.64;52.51
55517;BME280;41724;51.176;-0.708;2022-12-07T06:31:47;101808.45;;;6.67;52.34
55517;BME280;41724;51.176;-0.708;2022-12-07T06:34:17;101811.41;;;6.56;52.56
55517;BME280;41724;51.176;-0.708;2022-12-07T06:36:44;101816.76;;;6.55;52.61
55517;BME280;41724;51.176;-0.708;2022-12-07T06:39:11;101815.56;;;6.23;53.42
55517;BME280;41724;51.176;-0.708;2022-12-07T06:41:39;101812.98;;;6.71;52.96
55517;BME280;41724;51.176;-0.708;2022-12-07T06:44:07;101812.97;;;6.46;53.00
55517;BME280;41724;51.176;-0.708;2022-12-07T06:46:34;101813.53;;;6.91;52.59
55517;BME280;41724;51.176;-0.708;2022-12-07T06:49:01;101809.35;;;6.89;52.28
55517;BME280;41724;51.176;-0.708;2022-12-07T06:51:29;101811.70;;;7.17;52.06
55517;BME280;41724;51.176;-0.708;2022-12-07T06:53:56;101811.69;;;7.12;52.35
55517;BME280;41724;51.176;-0.708;2022-12-07T06:56:23;101814.23;;;6.66;52.47
55517;BME280;41724;51.176;-0.708;2022-12-07T06:58:50;101811.25;;;6.88;52.40
55517;BME280;41724;51.176;-0.708;2022-12-07T07:01:18;101813.62;;;7.31;51.64
55517;BME280;41724;51.176;-0.708;2022-12-07T07:03:46;101817.35;;;7.28;51.77
55517;BME280;41724;51.176;-0.708;2022-12-07T07:06:13;101817.59;;;7.52;51.47
55517;BME280;41724;51.176;-0.708;2022-12-07T07:08:40;101825.62;;;6.51;53.84
55517;BME280;41724;51.176;-0.708;2022-12-07T07:11:09;101826.05;;;6.55;53.69
55517;BME280;41724;51.176;-0.708;2022-12-07T07:13:37;101822.80;;;6.92;52.96
55517;BME280;41724;51.176;-0.708;2022-12-07T07:16:04;101825.28;;;6.35;54.22
55517;BME280;41724;51.176;-0.708;2022-12-07T07:18:32;101819.49;;;7.19;52.64
55517;BME280;41724;51.176;-0.708;2022-12-07T07:20:59;101820.16;;;7.52;52.01
55517;BME280;41724;51.176;-0.708;2022-12-07T07:23:27;101826.88;;;7.59;51.45
55517;BME280;41724;51.176;-0.708;2022-12-07T07:25:54;101822.75;;;7.64;51.09
55517;BME280;41724;51.176;-0.708;2022-12-07T07:28:22;101821.76;;;7.41;51.21
55517;BME280;41724;51.176;-0.708;2022-12-07T07:30:49;101825.61;;;7.42;51.35
55517;BME280;41724;51.176;-0.708;2022-12-07T07:33:16;101828.79;;;7.37;51.97
55517;BME280;41724;51.176;-0.708;2022-12-07T07:35:43;101836.18;;;6.77;52.89
55517;BME280;41724;51.176;-0.708;2022-12-07T07:38:11;101839.93;;;7.06;52.89
55517;BME280;41724;51.176;-0.708;2022-12-07T07:40:38;101836.85;;;7.05;52.14
55517;BME280;41724;51.176;-0.708;2022-12-07T07:43:05;101837.72;;;6.84;52.73
55517;BME280;41724;51.176;-0.708;2022-12-07T07:45:32;101836.22;;;6.70;53.30
55517;BME280;41724;51.176;-0.708;2022-12-07T07:47:59;101830.83;;;7.03;52.37
55517;BME280;41724;51.176;-0.708;2022-12-07T07:50:26;101835.92;;;6.93;52.78
55517;BME280;41724;51.176;-0.708;2022-12-07T07:52:53;101831.13;;;7.34;52.59
55517;BME280;41724;51.176;-0.708;2022-12-07T07:55:20;101836.27;;;6.91;52.89
55517;BME280;41724;51.176;-0.708;2022-12-07T07:57:47;101835.84;;;7.25;51.64
55517;BME280;41724;51.176;-0.708;2022-12-07T08:00:15;101835.54;;;7.30;51.78
55517;BME280;41724;51.176;-0.708;2022-12-07T08:02:43;101836.93;;;7.43;50.95
55517;BME280;41724;51.176;-0.708;2022-12-07T08:05:11;101838.21;;;7.39;50.95
55517;BME280;41724;51.176;-0.708;2022-12-07T08:07:38;101842.08;;;7.57;50.58
55517;BME280;41724;51.176;-0.708;2022-12-07T08:10:10;101838.59;;;7.58;50.13
55517;BME280;41724;51.176;-0.708;2022-12-07T08:12:38;101838.53;;;7.82;49.96
55517;BME280;41724;51.176;-0.708;2022-12-07T08:15:06;101840.32;;;7.94;49.66
55517;BME280;41724;51.176;-0.708;2022-12-07T08:17:34;101841.87;;;8.18;49.19
55517;BME280;41724;51.176;-0.708;2022-12-07T08:20:01;101847.63;;;8.00;49.02
55517;BME280;41724;51.176;-0.708;2022-12-07T08:22:28;101846.94;;;8.18;48.70
55517;BME280;41724;51.176;-0.708;2022-12-07T08:24:57;101844.66;;;7.99;48.88
55517;BME280;41724;51.176;-0.708;2022-12-07T08:27:24;101845.16;;;7.68;48.91
55517;BME280;41724;51.176;-0.708;2022-12-07T08:29:52;101842.10;;;8.30;48.98
55517;BME280;41724;51.176;-0.708;2022-12-07T08:32:19;101842.16;;;8.40;48.46
55517;BME280;41724;51.176;-0.708;2022-12-07T08:34:46;101844.18;;;8.31;48.60
55517;BME280;41724;51.176;-0.708;2022-12-07T08:37:14;101842.61;;;8.04;48.73
55517;BME280;41724;51.176;-0.708;2022-12-07T08:39:41;101840.71;;;7.89;49.55
55517;BME280;41724;51.176;-0.708;2022-12-07T08:42:08;101837.27;;;7.83;49.69
55517;BME280;41724;51.176;-0.708;2022-12-07T08:44:35;101838.99;;;7.71;49.70
55517;BME280;41724;51.176;-0.708;2022-12-07T08:47:07;101836.87;;;8.03;49.42
55517;BME280;41724;51.176;-0.708;2022-12-07T08:49:40;101839.01;;;8.04;49.46
55517;BME280;41724;51.176;-0.708;2022-12-07T08:52:08;101837.01;;;7.87;49.84
55517;BME280;41724;51.176;-0.708;2022-12-07T08:54:37;101837.04;;;8.02;49.43
55517;BME280;41724;51.176;-0.708;2022-12-07T08:57:05;101839.63;;;7.90;50.45
55517;BME280;41724;51.176;-0.708;2022-12-07T08:59:34;101840.18;;;7.89;50.02
55517;BME280;41724;51.176;-0.708;2022-12-07T09:02:03;101840.93;;;7.76;49.50
55517;BME280;41724;51.176;-0.708;2022-12-07T09:04:31;101840.67;;;8.01;49.24
55517;BME280;41724;51.176;-0.708;2022-12-07T09:06:58;101838.49;;;7.74;49.68
55517;BME280;41724;51.176;-0.708;2022-12-07T09:09:25;101834.70;;;7.74;49.45
55517;BME280;41724;51.176;-0.708;2022-12-07T09:11:52;101834.44;;;7.80;49.34
55517;BME280;41724;51.176;-0.708;2022-12-07T09:14:19;101836.74;;;7.72;49.29
55517;BME280;41724;51.176;-0.708;2022-12-07T09:16:47;101838.54;;;8.14;49.40
55517;BME280;41724;51.176;-0.708;2022-12-07T09:19:14;101838.49;;;8.03;49.55
55517;BME280;41724;51.176;-0.708;2022-12-07T09:21:41;101836.31;;;8.15;48.66
55517;BME280;41724;51.176;-0.708;2022-12-07T09:24:08;101832.79;;;8.37;48.37
55517;BME280;41724;51.176;-0.708;2022-12-07T09:26:35;101836.62;;;8.04;49.43
55517;BME280;41724;51.176;-0.708;2022-12-07T09:29:03;101834.55;;;8.40;48.43
55517;BME280;41724;51.176;-0.708;2022-12-07T09:31:30;101831.88;;;8.33;48.02
55517;BME280;41724;51.176;-0.708;2022-12-07T09:33:59;101834.66;;;8.27;47.60
55517;BME280;41724;51.176;-0.708;2022-12-07T09:36:27;101833.66;;;8.49;48.20
55517;BME280;41724;51.176;-0.708;2022-12-07T09:38:54;101828.46;;;8.49;47.44
55517;BME280;41724;51.176;-0.708;2022-12-07T09:41:23;101833.35;;;8.32;47.72
55517;BME280;41724;51.176;-0.708;2022-12-07T09:43:52;101833.01;;;8.03;48.38
55517;BME280;41724;51.176;-0.708;2022-12-07T09:46:20;101833.28;;;8.08;48.07
55517;BME280;41724;51.176;-0.708;2022-12-07T09:48:49;101838.84;;;8.06;48.02
55517;BME280;41724;51.176;-0.708;2022-12-07T09:51:19;101842.18;;;7.90;48.82
55517;BME280;41724;51.176;-0.708;2022-12-07T09:53:47;101842.48;;;8.10;47.64
55517;BME280;41724;51.176;-0.708;2022-12-07T09:56:16;101844.76;;;8.26;48.00
55517;BME280;41724;51.176;-0.708;2022-12-07T09:58:45;101840.98;;;7.92;46.68
55517;BME280;41724;51.176;-0.708;2022-12-07T10:01:15;101840.44;;;7.83;47.98
55517;BME280;41724;51.176;-0.708;2022-12-07T10:03:47;101838.28;;;8.36;48.17
55517;BME280;41724;51.176;-0.708;2022-12-07T10:06:17;101833.18;;;8.28;47.82
55517;BME280;41724;51.176;-0.708;2022-12-07T10:08:46;101836.36;;;8.43;47.06
55517;BME280;41724;51.176;-0.708;2022-12-07T10:11:14;101831.43;;;8.51;47.34
55517;BME280;41724;51.176;-0.708;2022-12-07T10:13:42;101830.26;;;8.17;48.11
55517;BME280;41724;51.176;-0.708;2022-12-07T10:16:31;101829.31;;;7.85;48.73
55517;BME280;41724;51.176;-0.708;2022-12-07T10:19:19;101822.95;;;8.39;47.85
55517;BME280;41724;51.176;-0.708;2022-12-07T10:22:01;101820.45;;;7.64;47.24
55517;BME280;41724;51.176;-0.708;2022-12-07T10:24:29;101819.80;;;6.70;50.57
55517;BME280;41724;51.176;-0.708;2022-12-07T10:26:57;101815.37;;;7.33;48.76
55517;BME280;41724;51.176;-0.708;2022-12-07T10:29:29;101810.61;;;7.77;48.26
55517;BME280;41724;51.176;-0.708;2022-12-07T10:31:59;101808.66;;;7.32;48.59
55517;BME280;41724;51.176;-0.708;2022-12-07T10:34:28;101803.65;;;6.98;50.48
55517;BME280;41724;51.176;-0.708;2022-12-07T10:37:15;101798.34;;;6.99;49.67
55517;BME280;41724;51.176;-0.708;2022-12-07T10:39:45;101798.22;;;6.37;50.50
55517;BME280;41724;51.176;-0.708;2022-12-07T10:42:17;101790.96;;;5.95;52.51
55517;BME280;41724;51.176;-0.708;2022-12-07T10:44:45;101782.67;;;6.16;51.64
55517;BME280;41724;51.176;-0.708;2022-12-07T10:47:32;101775.67;;;6.85;50.49
55517;BME280;41724;51.176;-0.708;2022-12-07T10:50:18;101776.05;;;6.10;51.36
55517;BME280;41724;51.176;-0.708;2022-12-07T10:53:07;101766.34;;;6.97;50.69
55517;BME280;41724;51.176;-0.708;2022-12-07T10:55:55;101763.19;;;6.99;49.97
55517;BME280;41724;51.176;-0.708;2022-12-07T10:58:35;101757.51;;;7.31;49.62
55517;BME280;41724;51.176;-0.708;2022-12-07T11:01:15;101758.60;;;7.29;49.49
55517;BME280;41724;51.176;-0.708;2022-12-07T11:03:52;101759.26;;;7.35;48.78
55517;BME280;41724;51.176;-0.708;2022-12-07T11:06:27;101763.93;;;7.07;49.31
55517;BME280;41724;51.176;-0.708;2022-12-07T11:09:05;101760.07;;;6.98;50.38
55517;BME280;41724;51.176;-0.708;2022-12-07T11:11:48;101757.63;;;7.33;49.04
55517;BME280;41724;51.176;-0.708;2022-12-07T11:14:24;101760.07;;;6.47;50.11
55517;BME280;41724;51.176;-0.708;2022-12-07T11:16:57;101751.79;;;6.80;51.14
55517;BME280;41724;51.176;-0.708;2022-12-07T11:19:39;101745.13;;;6.91;51.28
55517;BME280;41724;51.176;-0.708;2022-12-07T11:22:16;101741.21;;;7.24;49.36
55517;BME280;41724;51.176;-0.708;2022-12-07T11:24:53;101738.69;;;7.61;49.12
55517;BME280;41724;51.176;-0.708;2022-12-07T11:27:28;101738.74;;;7.62;49.18
55517;BME280;41724;51.176;-0.708;2022-12-07T11:30:10;101735.80;;;7.22;49.17
55517;BME280;41724;51.176;-0.708;2022-12-07T11:32:53;101726.82;;;7.55;47.67
55517;BME280;41724;51.176;-0.708;2022-12-07T11:35:34;101721.55;;;7.77;47.28
55517;BME280;41724;51.176;-0.708;2022-12-07T11:38:10;101721.12;;;7.90;47.77
55517;BME280;41724;51.176;-0.708;2022-12-07T11:40:40;101714.15;;;8.28;47.12
55517;BME280;41724;51.176;-0.708;2022-12-07T11:43:20;101711.53;;;7.22;49.70
55517;BME280;41724;51.176;-0.708;2022-12-07T11:45:54;101712.17;;;7.65;48.42
55517;BME280;41724;51.176;-0.708;2022-12-07T11:48:30;101706.97;;;7.13;49.23
55517;BME280;41724;51.176;-0.708;2022-12-07T11:51:01;101702.71;;;7.31;48.70
55517;BME280;41724;51.176;-0.708;2022-12-07T11:53:33;101699.94;;;7.75;49.45
55517;BME280;41724;51.176;-0.708;2022-12-07T11:56:09;101696.73;;;8.37;47.38
55517;BME280;41724;51.176;-0.708;2022-12-07T11:58:49;101687.34;;;7.43;48.15
55517;BME280;41724;51.176;-0.708;2022-12-07T12:01:32;101691.26;;;8.03;48.52
55517;BME280;41724;51.176;-0.708;2022-12-07T12:04:07;101685.34;;;8.62;47.33
55517;BME280;41724;51.176;-0.708;2022-12-07T12:06:43;101680.78;;;8.55;46.47
55517;BME280;41724;51.176;-0.708;2022-12-07T12:09:13;101679.86;;;8.54;47.29
55517;BME280;41724;51.176;-0.708;2022-12-07T12:12:01;101677.02;;;8.64;48.53
55517;BME280;41724;51.176;-0.708;2022-12-07T12:14:43;101679.75;;;8.66;47.24
55517;BME280;41724;51.176;-0.708;2022-12-07T12:17:30;101673.76;;;8.73;46.58
55517;BME280;41724;51.176;-0.708;2022-12-07T12:20:03;101669.85;;;8.78;45.99
55517;BME280;41724;51.176;-0.708;2022-12-07T12:22:37;101667.47;;;8.84;45.78
55517;BME280;41724;51.176;-0.708;2022-12-07T12:25:23;101660.18;;;9.24;45.59
55517;BME280;41724;51.176;-0.708;2022-12-07T12:27:53;101660.35;;;8.48;45.55
55517;BME280;41724;51.176;-0.708;2022-12-07T12:30:38;101654.27;;;8.74;46.30
55517;BME280;41724;51.176;-0.708;2022-12-07T12:33:13;101651.34;;;9.08;45.71
55517;BME280;41724;51.176;-0.708;2022-12-07T12:35:43;101648.28;;;8.54;46.17
55517;BME280;41724;51.176;-0.708;2022-12-07T12:38:27;101643.85;;;8.62;45.60
55517;BME280;41724;51.176;-0.708;2022-12-07T12:40:55;101641.94;;;8.68;46.50
55517;BME280;41724;51.176;-0.708;2022-12-07T12:43:54;101638.80;;;8.58;45.90
55517;BME280;41724;51.176;-0.708;2022-12-07T12:46:46;101636.07;;;9.23;45.78
55517;BME280;41724;51.176;-0.708;2022-12-07T12:49:35;101641.79;;;9.03;45.18
55517;BME280;41724;51.176;-0.708;2022-12-07T12:52:50;101638.29;;;8.73;46.38
55517;BME280;41724;51.176;-0.708;2022-12-07T12:55:22;101636.50;;;8.44;46.52
55517;BME280;41724;51.176;-0.708;2022-12-07T12:58:32;101631.73;;;9.14;45.02
55517;BME280;41724;51.176;-0.708;2022-12-07T13:03:24;101630.68;;;9.44;45.65
55517;BME280;41724;51.176;-0.708;2022-12-07T13:06:18;101622.92;;;9.11;45.50
55517;BME280;41724;51.176;-0.708;2022-12-07T13:08:46;101615.25;;;9.27;44.03
55517;BME280;41724;51.176;-0.708;2022-12-07T13:11:19;101607.72;;;9.21;43.98
55517;BME280;41724;51.176;-0.708;2022-12-07T13:13:51;101605.03;;;8.17;45.48